Budapest Bridge — VRIZ5 — position and weather

sailwx.info

Track history (hours):
 
Tides Pressure Air temp Water temp Dewpoint Dewpoint depression Visibility Wind speed Wind direction Waves Ship positions

Budapest Bridge

Last reported at 2014-Oct-02 01:00 UTC. Time now 2014-Oct-02 06:30 UTC.
Position N 00°00' E 089°12'.

Length 268 m; draft 12 m.

Type: Cargo ship. MMSI: 477434200.

Wind at 10 knots

Waves 1.0 meters (3 feet), 8 second period

Barometer 1009.0 mb
Air temperature 27.0 ° C
Visibility: greater than 5.4 NM
Dewpoint 24.1 ° C
Water temperature 33.0 ° C

Date/timePositionNaut miles runAvg speedWind from/ knotsBaromVisibWave heightAir tempDewpointWater temp
2014-Oct-02 01:00N 00°00' E 089°12'9318.7 1009.0 5.4 1.027.024.133.0
2014-Oct-01 20:00N 01°06' E 090°18'29314.6 180 / 131010.0 5.4 1.528.025.232.0
2014-Oct-01 00:00N 04°42' E 093°36'5513.8 160 / 71009.010.8 1.028.052.533.0
2014-Sep-30 20:00N 05°24' E 094°12'11314.2 170 / 111008.0 5.4 0.526.023.132.0
2014-Sep-30 12:00N 06°00' E 096°00'19015.8 010 / 981009.0 4.9 30.024.333.0
2014-Sep-30 00:00N 04°42' E 098°54'348 8.0 160 / 31009.010.8 28.026.633.0
2014-Sep-28 04:33N 01°13' E 103°32'1010.1
2014-Sep-28 03:33N 01°14' E 103°42'5 4.9
2014-Sep-28 02:31N 01°17' E 103°46'0 0.0
2014-Sep-28 01:31N 01°17' E 103°46'0 0.0
2014-Sep-28 00:28N 01°17' E 103°46'0 0.0
2014-Sep-27 23:31N 01°17' E 103°46'0 0.0
2014-Sep-27 22:31N 01°17' E 103°46'0 0.0
2014-Sep-27 21:31N 01°17' E 103°46'0 0.0
2014-Sep-27 20:31N 01°17' E 103°46'0 0.0
2014-Sep-27 19:31N 01°17' E 103°46'0 0.0
2014-Sep-27 18:28N 01°17' E 103°46'0 0.0
2014-Sep-27 17:31N 01°17' E 103°46'0 0.0
2014-Sep-27 16:31N 01°17' E 103°46'0 0.0
2014-Sep-27 15:31N 01°17' E 103°46'0 0.0
2014-Sep-27 14:31N 01°17' E 103°46'0 0.0
2014-Sep-27 13:31N 01°17' E 103°46'0 0.0
2014-Sep-27 12:28N 01°17' E 103°46'0 0.0
2014-Sep-27 11:31N 01°17' E 103°46'0 0.0
2014-Sep-27 10:31N 01°17' E 103°46'0 0.0
2014-Sep-27 09:25N 01°17' E 103°46'0 0.0
2014-Sep-27 08:31N 01°17' E 103°46'0 0.1
2014-Sep-27 07:33N 01°17' E 103°46'2 1.6
2014-Sep-27 06:33N 01°17' E 103°44'10 9.7
2014-Sep-27 05:33N 01°14' E 103°54'6 5.6
2014-Sep-27 04:33N 01°15' E 103°59'9811.4
2014-Sep-26 20:00N 02°36' E 104°54'76515.6 210 / 51011.0 5.4 0.528.025.230.0
2014-Sep-24 19:00N 13°18' E 111°54'54916.9 250 / 51009.0 5.4 0.528.025.2
2014-Sep-23 10:29N 22°11' E 114°11'1111.5
2014-Sep-23 09:33N 22°20' E 114°05'1110.5
2014-Sep-23 08:33N 22°23' E 113°54'5 4.4
2014-Sep-23 07:29N 22°27' E 113°54'0 0.0
2014-Sep-23 06:32N 22°27' E 113°54'0 0.0
2014-Sep-23 05:29N 22°27' E 113°54'0 0.0
2014-Sep-23 04:32N 22°27' E 113°54'0 0.0
2014-Sep-23 03:23N 22°27' E 113°54'0 0.0
2014-Sep-23 02:23N 22°27' E 113°54'0 0.0
2014-Sep-23 01:26N 22°27' E 113°54'0 0.0
2014-Sep-23 00:17N 22°27' E 113°54'0 0.0
2014-Sep-22 23:32N 22°27' E 113°54'0 0.0
2014-Sep-22 22:23N 22°27' E 113°54'0 0.0
2014-Sep-22 21:29N 22°27' E 113°54'0 0.0
2014-Sep-22 20:11N 22°27' E 113°54'0 0.0
2014-Sep-22 19:23N 22°27' E 113°54'0 0.1
2014-Sep-22 18:29N 22°27' E 113°54'0 0.1
2014-Sep-22 17:29N 22°27' E 113°54'2 2.7
2014-Sep-22 16:33N 22°25' E 113°53'9 9.2
2014-Sep-22 15:33N 22°21' E 114°03'4 3.9
2014-Sep-22 14:33N 22°18' E 114°05'0 0.1
2014-Sep-22 13:03N 22°18' E 114°05'0 0.0
2014-Sep-22 10:03N 22°18' E 114°05'0 0.3
2014-Sep-22 09:32N 22°18' E 114°05'3 0.4
2014-Sep-22 02:20N 22°21' E 114°07'0 0.0
2014-Sep-22 01:32N 22°20' E 114°07'  
Track history (hours):
 
Tides Pressure Air temp Water temp Dewpoint Dewpoint depression Visibility Wind speed Wind direction Waves Ship positions

Budapest Bridge

Last reported at 2014-Oct-02 01:00 UTC. Time now 2014-Oct-02 06:30 UTC.
Position N 00°00' E 089°12'.

Length 268 m; draft 12 m.

Type: Cargo ship. MMSI: 477434200.

Wind at 10 knots

Waves 1.0 meters (3 feet), 8 second period

Barometer 1009.0 mb
Air temperature 27.0 ° C
Visibility: greater than 5.4 NM
Dewpoint 24.1 ° C
Water temperature 33.0 ° C

Date/timePositionNaut miles runAvg speedWind from/ knotsBaromVisibWave heightAir tempDewpointWater temp
2014-Oct-02 01:00N 00°00' E 089°12'9318.7 1009.0 5.4 1.027.024.133.0
2014-Oct-01 20:00N 01°06' E 090°18'29314.6 180 / 131010.0 5.4 1.528.025.232.0
2014-Oct-01 00:00N 04°42' E 093°36'5513.8 160 / 71009.010.8 1.028.052.533.0
2014-Sep-30 20:00N 05°24' E 094°12'11314.2 170 / 111008.0 5.4 0.526.023.132.0
2014-Sep-30 12:00N 06°00' E 096°00'19015.8 010 / 981009.0 4.9 30.024.333.0
2014-Sep-30 00:00N 04°42' E 098°54'348 8.0 160 / 31009.010.8 28.026.633.0
2014-Sep-28 04:33N 01°13' E 103°32'1010.1
2014-Sep-28 03:33N 01°14' E 103°42'5 4.9
2014-Sep-28 02:31N 01°17' E 103°46'0 0.0
2014-Sep-28 01:31N 01°17' E 103°46'0 0.0
2014-Sep-28 00:28N 01°17' E 103°46'0 0.0
2014-Sep-27 23:31N 01°17' E 103°46'0 0.0
2014-Sep-27 22:31N 01°17' E 103°46'0 0.0
2014-Sep-27 21:31N 01°17' E 103°46'0 0.0
2014-Sep-27 20:31N 01°17' E 103°46'0 0.0
2014-Sep-27 19:31N 01°17' E 103°46'0 0.0
2014-Sep-27 18:28N 01°17' E 103°46'0 0.0
2014-Sep-27 17:31N 01°17' E 103°46'0 0.0
2014-Sep-27 16:31N 01°17' E 103°46'0 0.0
2014-Sep-27 15:31N 01°17' E 103°46'0 0.0
2014-Sep-27 14:31N 01°17' E 103°46'0 0.0
2014-Sep-27 13:31N 01°17' E 103°46'0 0.0
2014-Sep-27 12:28N 01°17' E 103°46'0 0.0
2014-Sep-27 11:31N 01°17' E 103°46'0 0.0
2014-Sep-27 10:31N 01°17' E 103°46'0 0.0
2014-Sep-27 09:25N 01°17' E 103°46'0 0.0
2014-Sep-27 08:31N 01°17' E 103°46'0 0.1
2014-Sep-27 07:33N 01°17' E 103°46'2 1.6
2014-Sep-27 06:33N 01°17' E 103°44'10 9.7
2014-Sep-27 05:33N 01°14' E 103°54'6 5.6
2014-Sep-27 04:33N 01°15' E 103°59'9811.4
2014-Sep-26 20:00N 02°36' E 104°54'76515.6 210 / 51011.0 5.4 0.528.025.230.0
2014-Sep-24 19:00N 13°18' E 111°54'54916.9 250 / 51009.0 5.4 0.528.025.2
2014-Sep-23 10:29N 22°11' E 114°11'1111.5
2014-Sep-23 09:33N 22°20' E 114°05'1110.5
2014-Sep-23 08:33N 22°23' E 113°54'5 4.4
2014-Sep-23 07:29N 22°27' E 113°54'0 0.0
2014-Sep-23 06:32N 22°27' E 113°54'0 0.0
2014-Sep-23 05:29N 22°27' E 113°54'0 0.0
2014-Sep-23 04:32N 22°27' E 113°54'0 0.0
2014-Sep-23 03:23N 22°27' E 113°54'0 0.0
2014-Sep-23 02:23N 22°27' E 113°54'0 0.0
2014-Sep-23 01:26N 22°27' E 113°54'0 0.0
2014-Sep-23 00:17N 22°27' E 113°54'0 0.0
2014-Sep-22 23:32N 22°27' E 113°54'0 0.0
2014-Sep-22 22:23N 22°27' E 113°54'0 0.0
2014-Sep-22 21:29N 22°27' E 113°54'0 0.0
2014-Sep-22 20:11N 22°27' E 113°54'0 0.0
2014-Sep-22 19:23N 22°27' E 113°54'0 0.1
2014-Sep-22 18:29N 22°27' E 113°54'0 0.1
2014-Sep-22 17:29N 22°27' E 113°54'2 2.7
2014-Sep-22 16:33N 22°25' E 113°53'9 9.2
2014-Sep-22 15:33N 22°21' E 114°03'4 3.9
2014-Sep-22 14:33N 22°18' E 114°05'0 0.1
2014-Sep-22 13:03N 22°18' E 114°05'0 0.0
2014-Sep-22 10:03N 22°18' E 114°05'0 0.3
2014-Sep-22 09:32N 22°18' E 114°05'3 0.4
2014-Sep-22 02:20N 22°21' E 114°07'0 0.0
2014-Sep-22 01:32N 22°20' E 114°07'  

Dump ship's entire track history